Time;durP1;ratioP1;P1;durP2;ratioP2;P2;SDS_P1;SDS_P2;PMS_P1;PMS_P2;Temp;Humidity;BMP_temperature;BMP_pressure;BME280_temperature;BME280_humidity;BME280_pressure;Samples;Min_cycle;Max_cycle;Signal;HPM_P1;HPM_P2
2022/01/29 00:01:48;;;;;;;8.02;6.72;;;19.20;98.60;;;;;;4164479;28;20266;-73
2022/01/29 00:03:50;;;;;;;9.02;7.40;;;19.20;98.60;;;;;;4163639;28;20557;-73
2022/01/29 00:05:53;;;;;;;8.60;7.40;;;19.20;98.50;;;;;;4161988;28;20217;-73
2022/01/29 00:07:55;;;;;;;8.48;7.50;;;19.10;98.50;;;;;;4162217;28;20556;-73
2022/01/29 00:10:03;;;;;;;9.93;7.32;;;19.10;98.80;;;;;;4163215;28;20212;-73
2022/01/29 00:12:06;;;;;;;9.68;7.68;;;19.10;98.50;;;;;;4163476;28;20264;-73
2022/01/29 00:14:08;;;;;;;11.52;7.85;;;19.10;98.40;;;;;;4162605;28;20290;-75
2022/01/29 00:16:11;;;;;;;8.00;7.13;;;19.10;98.40;;;;;;4159866;28;20254;-73
2022/01/29 00:18:13;;;;;;;9.70;7.43;;;19.10;98.60;;;;;;4162526;28;20660;-73
2022/01/29 00:20:16;;;;;;;10.10;7.03;;;19.10;98.50;;;;;;4161522;28;20209;-73
2022/01/29 00:22:18;;;;;;;8.65;7.60;;;19.10;98.60;;;;;;4161369;28;20327;-73
2022/01/29 00:24:20;;;;;;;8.82;6.90;;;19.00;98.40;;;;;;4161341;28;20228;-73
2022/01/29 00:26:26;;;;;;;9.05;7.57;;;19.10;98.40;;;;;;4161739;28;20669;-73
2022/01/29 00:28:29;;;;;;;8.27;7.30;;;19.10;98.50;;;;;;4162056;28;20278;-73
2022/01/29 00:30:37;;;;;;;8.70;7.20;;;19.10;98.60;;;;;;4162172;28;20231;-73
2022/01/29 00:32:40;;;;;;;9.52;7.03;;;19.10;98.30;;;;;;4160292;28;20931;-73
2022/01/29 00:34:43;;;;;;;8.60;7.15;;;19.00;98.30;;;;;;4160499;28;20286;-73
2022/01/29 00:36:45;;;;;;;9.90;7.20;;;19.00;98.30;;;;;;4160765;28;20235;-73
2022/01/29 00:38:47;;;;;;;9.00;7.25;;;19.00;98.40;;;;;;4160790;28;20277;-73
2022/01/29 00:40:50;;;;;;;9.90;7.32;;;19.00;98.40;;;;;;4162509;28;20351;-73
2022/01/29 00:42:54;;;;;;;8.70;6.60;;;19.00;98.40;;;;;;4161074;28;20220;-73
2022/01/29 00:44:56;;;;;;;8.27;7.32;;;19.00;98.30;;;;;;4161466;28;20217;-74
2022/01/29 00:46:58;;;;;;;9.70;7.05;;;19.00;98.30;;;;;;4161757;28;20224;-73
2022/01/29 00:49:01;;;;;;;8.93;7.13;;;19.00;98.40;;;;;;4161545;28;20625;-73
2022/01/29 00:51:03;;;;;;;8.40;6.75;;;19.00;98.50;;;;;;4159062;28;20262;-75
2022/01/29 00:53:05;;;;;;;7.40;6.63;;;19.00;98.40;;;;;;4161129;28;20246;-73
2022/01/29 00:55:09;;;;;;;9.75;6.90;;;19.00;98.40;;;;;;4161013;28;20216;-73
2022/01/29 00:57:12;;;;;;;8.20;7.00;;;19.00;98.50;;;;;;4162341;28;20295;-73
2022/01/29 00:59:15;;;;;;;9.70;6.82;;;18.90;98.30;;;;;;4163331;28;20290;-73
2022/01/29 01:01:18;;;;;;;9.40;7.13;;;19.00;98.50;;;;;;4165375;28;20221;-73
2022/01/29 01:03:20;;;;;;;8.07;6.65;;;18.90;98.30;;;;;;4166324;28;20217;-73
2022/01/29 01:05:22;;;;;;;8.70;7.22;;;18.90;98.30;;;;;;4164683;28;20216;-73
2022/01/29 01:07:25;;;;;;;8.15;6.97;;;18.90;98.40;;;;;;4161762;28;20225;-73
2022/01/29 01:09:27;;;;;;;8.57;6.88;;;18.90;98.40;;;;;;4164946;28;20204;-73
2022/01/29 01:11:30;;;;;;;10.75;7.22;;;18.90;98.40;;;;;;4164839;28;20308;-73
2022/01/29 01:13:35;;;;;;;8.88;7.47;;;18.90;98.40;;;;;;4165579;28;20263;-75
2022/01/29 01:15:39;;;;;;;7.97;6.70;;;18.90;98.40;;;;;;4164714;28;20209;-75
2022/01/29 01:17:41;;;;;;;8.05;6.63;;;18.90;98.50;;;;;;4164074;28;20221;-76
2022/01/29 01:19:43;;;;;;;8.43;7.20;;;18.90;98.30;;;;;;4165745;28;20298;-75
2022/01/29 01:21:46;;;;;;;10.23;7.32;;;18.90;98.50;;;;;;4164551;28;20255;-75
2022/01/29 01:23:48;;;;;;;9.07;6.38;;;18.90;98.40;;;;;;4162344;28;20205;-73
2022/01/29 01:25:50;;;;;;;7.63;6.90;;;18.80;98.40;;;;;;4162025;28;20703;-75
2022/01/29 01:27:53;;;;;;;8.50;7.22;;;18.90;98.40;;;;;;4164325;28;20670;-75
2022/01/29 01:29:55;;;;;;;8.05;6.93;;;18.90;98.40;;;;;;4164814;28;20274;-75
2022/01/29 01:31:59;;;;;;;9.00;6.43;;;18.90;98.50;;;;;;4163883;28;20281;-73
2022/01/29 01:34:03;;;;;;;6.80;6.03;;;18.90;98.40;;;;;;4160413;28;20221;-75
2022/01/29 01:36:07;;;;;;;8.27;6.50;;;18.80;98.30;;;;;;4159998;28;20298;-75
2022/01/29 01:38:15;;;;;;;8.27;6.85;;;18.80;98.40;;;;;;4164700;28;20263;-75
2022/01/29 01:40:18;;;;;;;7.10;6.38;;;18.90;98.50;;;;;;4163636;28;20232;-75
2022/01/29 01:42:21;;;;;;;7.85;6.57;;;18.80;98.40;;;;;;4161656;28;20262;-72
2022/01/29 01:44:23;;;;;;;7.53;5.95;;;18.80;98.40;;;;;;4165654;28;20645;-72
2022/01/29 01:46:25;;;;;;;7.75;6.68;;;18.80;98.40;;;;;;4164398;28;20951;-75
2022/01/29 01:48:29;;;;;;;7.72;6.05;;;18.80;98.80;;;;;;4164634;28;20220;-72
2022/01/29 01:50:32;;;;;;;7.60;6.05;;;18.80;98.40;;;;;;4164569;28;20208;-75
2022/01/29 01:52:34;;;;;;;7.32;6.13;;;18.80;98.50;;;;;;4164274;28;20283;-75
2022/01/29 01:54:37;;;;;;;8.13;6.15;;;18.80;98.40;;;;;;4164607;28;20220;-75
2022/01/29 01:56:39;;;;;;;6.65;5.97;;;18.80;98.50;;;;;;4164122;28;20271;-72
2022/01/29 01:58:41;;;;;;;9.52;6.93;;;18.80;98.50;;;;;;4161904;28;20216;-72
2022/01/29 02:00:44;;;;;;;8.77;6.72;;;18.80;98.60;;;;;;4164131;28;20716;-74
2022/01/29 02:02:46;;;;;;;6.82;6.13;;;18.80;98.50;;;;;;4164503;28;20266;-75
2022/01/29 02:04:50;;;;;;;9.77;7.25;;;18.80;98.50;;;;;;4163959;28;20275;-73
2022/01/29 02:06:53;;;;;;;8.48;6.47;;;18.80;98.70;;;;;;4162956;28;20279;-72
2022/01/29 02:08:59;;;;;;;8.02;6.57;;;18.80;98.60;;;;;;4163924;28;20353;-73
2022/01/29 02:11:05;;;;;;;7.03;6.05;;;18.70;98.50;;;;;;4163897;28;20232;-72
2022/01/29 02:13:07;;;;;;;8.32;6.10;;;18.70;98.60;;;;;;4163694;28;20220;-74
2022/01/29 02:15:12;;;;;;;8.50;6.53;;;18.70;98.70;;;;;;4165774;28;20266;-72
2022/01/29 02:17:16;;;;;;;7.53;6.45;;;18.70;98.60;;;;;;4165451;28;20287;-73
2022/01/29 02:19:18;;;;;;;5.90;5.40;;;18.70;98.70;;;;;;4163102;28;20293;-73
2022/01/29 02:21:22;;;;;;;9.63;6.63;;;18.70;98.60;;;;;;4164466;28;20259;-72
2022/01/29 02:23:26;;;;;;;7.07;5.88;;;18.70;98.60;;;;;;4164268;28;20208;-72
2022/01/29 02:25:30;;;;;;;8.10;5.85;;;18.70;99.00;;;;;;4161594;28;20642;-72
2022/01/29 02:27:32;;;;;;;7.53;6.50;;;18.70;98.70;;;;;;4164351;28;20581;-73
2022/01/29 02:29:35;;;;;;;7.60;6.05;;;18.70;98.70;;;;;;4164004;28;20246;-72
2022/01/29 02:31:46;;;;;;;6.78;6.07;;;18.70;98.60;;;;;;4161924;28;20737;-72
2022/01/29 02:33:49;;;;;;;9.48;6.85;;;18.70;98.70;;;;;;4162203;28;20286;-73
2022/01/29 02:35:53;;;;;;;7.78;6.40;;;18.70;98.70;;;;;;4163661;28;20216;-73
2022/01/29 02:37:55;;;;;;;8.63;6.15;;;18.70;98.70;;;;;;4163427;28;20204;-75
2022/01/29 02:39:59;;;;;;;8.07;6.20;;;18.70;98.80;;;;;;4163359;28;20232;-73
2022/01/29 02:42:01;;;;;;;6.72;6.03;;;18.70;99.00;;;;;;4163050;28;20934;-72
2022/01/29 02:44:05;;;;;;;7.88;5.68;;;18.70;98.80;;;;;;4162936;28;20294;-74
2022/01/29 02:46:19;;;;;;;7.85;6.53;;;18.60;98.70;;;;;;4163465;28;20220;-75
2022/01/29 02:48:23;;;;;;;7.18;6.03;;;18.70;98.80;;;;;;4162254;28;20263;-73
2022/01/29 02:50:26;;;;;;;6.47;5.43;;;18.60;98.80;;;;;;4162764;28;20213;-74
2022/01/29 02:52:28;;;;;;;6.78;6.00;;;18.60;98.90;;;;;;4162808;28;20278;-75
2022/01/29 02:54:30;;;;;;;8.45;5.93;;;18.60;98.80;;;;;;4163096;28;20271;-75
2022/01/29 02:56:34;;;;;;;6.78;6.13;;;18.60;99.20;;;;;;4163835;28;20216;-75
2022/01/29 02:58:37;;;;;;;7.82;5.78;;;18.60;98.90;;;;;;4164036;28;20220;-75
2022/01/29 03:00:39;;;;;;;6.00;5.32;;;18.60;98.90;;;;;;4163945;28;20240;-75
2022/01/29 03:02:42;;;;;;;6.35;5.68;;;18.60;98.90;;;;;;4163932;28;20646;-75
2022/01/29 03:04:44;;;;;;;7.32;5.90;;;18.60;98.90;;;;;;4163648;28;20220;-75
2022/01/29 03:06:47;;;;;;;6.55;5.55;;;18.60;99.00;;;;;;4161763;28;20625;-74
2022/01/29 03:08:49;;;;;;;9.60;6.18;;;18.60;99.00;;;;;;4163022;28;20730;-75
2022/01/29 03:10:51;;;;;;;7.07;5.32;;;18.60;99.00;;;;;;4164979;28;21059;-75
2022/01/29 03:12:55;;;;;;;6.55;5.43;;;18.60;99.10;;;;;;4164343;28;20224;-74
2022/01/29 03:14:58;;;;;;;6.22;5.50;;;18.60;99.00;;;;;;4162818;28;20224;-74
2022/01/29 03:17:00;;;;;;;6.47;5.47;;;18.50;99.10;;;;;;4162714;28;20221;-74
2022/01/29 03:19:02;;;;;;;7.55;5.90;;;18.50;99.10;;;;;;4162096;28;20271;-73
2022/01/29 03:21:05;;;;;;;7.13;5.72;;;18.60;99.10;;;;;;4161504;28;20245;-73
2022/01/29 03:23:07;;;;;;;6.57;5.82;;;18.60;99.20;;;;;;4158874;28;20213;-74
2022/01/29 03:25:09;;;;;;;7.15;5.50;;;18.60;99.20;;;;;;4166434;28;20219;-73
2022/01/29 03:27:12;;;;;;;6.93;4.95;;;18.50;99.10;;;;;;4162440;28;20221;-73
2022/01/29 03:29:16;;;;;;;5.25;4.75;;;18.50;99.00;;;;;;4162060;28;20259;-73
2022/01/29 03:31:18;;;;;;;7.20;5.15;;;18.50;99.10;;;;;;4162208;28;20216;-74
2022/01/29 03:33:20;;;;;;;6.35;5.55;;;18.50;99.20;;;;;;4160426;28;20216;-73
2022/01/29 03:35:23;;;;;;;6.22;4.93;;;18.50;99.20;;;;;;4162116;28;20669;-74
2022/01/29 03:37:25;;;;;;;6.25;5.18;;;18.50;99.50;;;;;;4162238;28;20295;-74
2022/01/29 03:39:28;;;;;;;5.70;5.13;;;18.50;99.60;;;;;;4161045;28;20255;-73
2022/01/29 03:41:31;;;;;;;5.43;4.82;;;18.50;99.20;;;;;;4160676;28;20240;-73
2022/01/29 03:43:40;;;;;;;6.40;5.00;;;18.50;99.20;;;;;;4162402;28;20270;-73
2022/01/29 03:45:44;;;;;;;5.90;5.25;;;18.50;99.30;;;;;;4162340;28;20216;-74
2022/01/29 03:47:46;;;;;;;5.22;4.68;;;18.50;99.20;;;;;;4162858;28;20219;-73
2022/01/29 03:49:49;;;;;;;5.05;4.55;;;18.50;99.20;;;;;;4163353;28;20555;-73
2022/01/29 03:51:51;;;;;;;5.50;4.88;;;18.50;99.30;;;;;;4163094;28;20208;-73
2022/01/29 03:53:54;;;;;;;4.90;4.40;;;18.50;99.40;;;;;;4162270;28;20267;-73
2022/01/29 03:55:56;;;;;;;7.15;4.82;;;18.50;99.40;;;;;;4162360;28;20263;-74
2022/01/29 03:57:58;;;;;;;5.18;4.70;;;18.50;99.30;;;;;;4161557;28;20224;-73
2022/01/29 04:00:02;;;;;;;5.35;4.85;;;18.50;99.30;;;;;;4162190;28;20217;-74
2022/01/29 04:02:05;;;;;;;5.18;4.68;;;18.50;99.40;;;;;;4163972;28;20240;-74
2022/01/29 04:04:08;;;;;;;4.90;4.38;;;18.50;99.40;;;;;;4160101;28;20216;-73
2022/01/29 04:06:11;;;;;;;5.82;4.50;;;18.50;99.50;;;;;;4163395;28;20251;-73
2022/01/29 04:08:16;;;;;;;4.85;4.20;;;18.50;99.40;;;;;;4162103;28;20239;-74
2022/01/29 04:10:20;;;;;;;4.80;4.30;;;18.50;99.50;;;;;;4162073;28;20287;-73
2022/01/29 04:12:24;;;;;;;6.18;5.10;;;18.40;99.40;;;;;;4162902;28;20212;-74
2022/01/29 04:14:32;;;;;;;5.45;4.78;;;18.50;99.60;;;;;;4161785;28;20318;-73
2022/01/29 04:16:35;;;;;;;5.03;4.53;;;18.50;99.50;;;;;;4162569;28;20224;-74
2022/01/29 04:18:39;;;;;;;5.10;4.55;;;18.50;99.80;;;;;;4162118;28;20224;-74
2022/01/29 04:20:42;;;;;;;4.80;4.10;;;18.50;99.40;;;;;;4161395;28;20216;-73
2022/01/29 04:22:45;;;;;;;5.10;4.60;;;18.40;99.50;;;;;;4156191;28;20216;-73
2022/01/29 04:24:47;;;;;;;4.95;4.45;;;18.40;99.50;;;;;;4161585;28;20224;-73
2022/01/29 04:26:49;;;;;;;4.90;4.13;;;18.40;99.50;;;;;;4161653;28;20220;-73
2022/01/29 04:28:52;;;;;;;4.57;4.18;;;18.40;99.50;;;;;;4161251;28;20268;-73
2022/01/29 04:30:59;;;;;;;4.80;4.32;;;18.40;99.60;;;;;;4161290;28;20221;-73
2022/01/29 04:33:14;;;;;;;4.90;4.40;;;18.40;99.60;;;;;;4162379;28;20271;-73
2022/01/29 04:35:17;;;;;;;4.28;3.88;;;18.40;99.60;;;;;;4161152;28;20255;-74
2022/01/29 04:37:20;;;;;;;4.13;3.70;;;18.40;99.70;;;;;;4162447;28;20294;-73
2022/01/29 04:39:22;;;;;;;4.07;3.60;;;18.40;99.60;;;;;;4161500;28;20212;-73
2022/01/29 04:41:25;;;;;;;4.43;4.03;;;18.40;99.60;;;;;;4161407;28;20287;-73
2022/01/29 04:43:27;;;;;;;4.97;4.13;;;18.40;99.90;;;;;;4161730;28;20263;-73
2022/01/29 04:45:30;;;;;;;4.88;4.35;;;18.40;99.60;;;;;;4161681;28;21895;-74
2022/01/29 04:47:32;;;;;;;4.63;4.03;;;18.40;99.60;;;;;;4160320;28;20212;-73
2022/01/29 04:49:34;;;;;;;4.18;3.70;;;18.40;99.70;;;;;;4161487;28;20291;-74
2022/01/29 04:51:38;;;;;;;3.97;3.42;;;18.40;99.70;;;;;;4162652;28;20217;-74
2022/01/29 04:53:41;;;;;;;5.10;4.35;;;18.40;99.80;;;;;;4162438;28;20677;-74
2022/01/29 04:55:43;;;;;;;5.22;4.40;;;18.40;99.70;;;;;;4162461;28;20215;-74
2022/01/29 04:57:45;;;;;;;4.68;4.13;;;18.40;99.80;;;;;;4161537;28;20267;-73
2022/01/29 04:59:48;;;;;;;4.95;3.90;;;18.40;99.80;;;;;;4161874;28;20275;-74
2022/01/29 05:01:50;;;;;;;4.30;3.90;;;18.40;99.70;;;;;;4161458;28;20649;-73
2022/01/29 05:03:52;;;;;;;3.97;3.53;;;18.40;99.90;;;;;;4161210;28;20224;-74
2022/01/29 05:05:55;;;;;;;4.20;3.80;;;18.40;99.90;;;;;;4160134;28;20554;-74
2022/01/29 05:07:59;;;;;;;4.70;3.70;;;18.30;99.80;;;;;;4157525;28;20299;-74
2022/01/29 05:10:01;;;;;;;4.05;3.67;;;18.30;99.80;;;;;;4161322;28;20216;-74
2022/01/29 05:12:04;;;;;;;3.92;3.53;;;18.30;99.80;;;;;;4161438;28;20209;-74
2022/01/29 05:14:09;;;;;;;3.72;3.35;;;18.30;99.80;;;;;;4160414;28;20258;-74
2022/01/29 05:16:35;;;;;;;4.10;3.70;;;18.30;99.90;;;;;;4161491;28;20223;-74
2022/01/29 05:27:58;;;;;;;4.28;3.60;;;18.30;99.90;;;;;;4161633;28;20200;-73
2022/01/29 05:30:00;;;;;;;3.72;3.38;;;18.30;99.90;;;;;;4162643;28;20252;-73
2022/01/29 05:32:06;;;;;;;4.57;3.58;;;18.30;99.90;;;;;;4162571;28;20224;-73
2022/01/29 05:34:09;;;;;;;3.67;3.38;;;18.30;99.90;;;;;;4162644;28;20259;-73
2022/01/29 05:36:11;;;;;;;3.60;3.30;;;18.30;99.90;;;;;;4162523;28;20240;-74
2022/01/29 05:38:14;;;;;;;3.55;3.17;;;18.30;99.90;;;;;;4161803;28;20213;-73
2022/01/29 05:40:17;;;;;;;4.07;3.35;;;18.30;99.90;;;;;;4158584;28;20213;-74
2022/01/29 05:42:20;;;;;;;3.92;3.17;;;18.30;99.90;;;;;;4157132;28;20237;-73
2022/01/29 05:44:22;;;;;;;4.00;3.40;;;18.30;99.90;;;;;;4159793;28;20256;-73
2022/01/29 05:46:25;;;;;;;3.95;3.35;;;18.30;99.90;;;;;;4164064;28;20258;-73
2022/01/29 05:48:27;;;;;;;4.30;3.65;;;18.30;99.90;;;;;;4164400;28;20223;-73
2022/01/29 05:50:29;;;;;;;3.58;3.28;;;18.20;99.90;;;;;;4164018;28;20309;-73
2022/01/29 05:52:33;;;;;;;3.35;3.05;;;18.30;99.90;;;;;;4164470;28;20212;-73
2022/01/29 05:54:35;;;;;;;3.55;3.22;;;18.30;99.90;;;;;;4164075;28;20262;-73
2022/01/29 05:56:39;;;;;;;3.08;2.83;;;18.30;99.90;;;;;;4161871;28;20268;-73
2022/01/29 05:58:41;;;;;;;4.05;3.25;;;18.30;99.90;;;;;;4163703;28;20212;-73
2022/01/29 06:00:43;;;;;;;4.10;3.15;;;18.30;99.90;;;;;;4162665;28;20212;-73
2022/01/29 06:02:45;;;;;;;3.40;3.10;;;18.20;99.90;;;;;;4158010;28;20246;-73
2022/01/29 06:04:48;;;;;;;3.13;2.83;;;18.20;99.90;;;;;;4163907;28;20224;-74
2022/01/29 06:06:50;;;;;;;3.20;2.90;;;18.20;99.90;;;;;;4163817;28;20212;-73
2022/01/29 06:08:53;;;;;;;3.50;3.20;;;18.20;99.90;;;;;;4163575;28;20208;-73
2022/01/29 06:10:55;;;;;;;3.67;3.10;;;18.20;99.90;;;;;;4163766;28;20216;-73
2022/01/29 06:13:03;;;;;;;2.95;2.70;;;18.30;99.90;;;;;;4162179;28;20216;-73
2022/01/29 06:15:06;;;;;;;3.72;3.00;;;18.20;99.90;;;;;;4155389;28;20274;-73
2022/01/29 06:17:09;;;;;;;3.80;3.40;;;18.20;99.90;;;;;;4163948;28;20641;-73
2022/01/29 06:19:11;;;;;;;3.10;2.83;;;18.20;99.90;;;;;;4159559;28;20212;-74
2022/01/29 06:21:15;;;;;;;4.13;3.00;;;18.30;99.90;;;;;;4164317;28;20209;-73
2022/01/29 06:23:21;;;;;;;4.13;3.45;;;18.20;99.90;;;;;;4165668;28;20228;-73
2022/01/29 06:25:23;;;;;;;3.15;2.85;;;18.30;99.90;;;;;;4163915;28;20258;-73
2022/01/29 06:27:26;;;;;;;3.78;3.08;;;18.20;99.90;;;;;;4163588;28;20619;-73
2022/01/29 06:29:29;;;;;;;3.30;3.00;;;18.20;99.90;;;;;;4162388;28;20216;-73
2022/01/29 06:31:32;;;;;;;2.67;2.47;;;18.20;99.90;;;;;;4162873;28;20289;-73
2022/01/29 06:33:34;;;;;;;3.17;2.88;;;18.20;99.90;;;;;;4164750;28;20208;-73
2022/01/29 06:35:37;;;;;;;3.28;2.85;;;18.20;99.90;;;;;;4164725;28;21067;-73
2022/01/29 06:37:39;;;;;;;4.38;2.88;;;18.20;99.90;;;;;;4161449;28;20643;-74
2022/01/29 06:39:42;;;;;;;2.95;2.65;;;18.20;99.90;;;;;;4160658;28;20216;-73
2022/01/29 06:41:44;;;;;;;3.15;2.83;;;18.20;99.90;;;;;;4162699;28;20220;-73
2022/01/29 06:43:46;;;;;;;2.80;2.55;;;18.20;99.90;;;;;;4163400;28;20693;-73
2022/01/29 06:45:50;;;;;;;3.70;2.90;;;18.20;99.90;;;;;;4164450;28;20220;-74
2022/01/29 06:47:52;;;;;;;3.05;2.67;;;18.20;99.90;;;;;;4162527;28;20225;-73
2022/01/29 06:49:55;;;;;;;3.35;2.78;;;18.20;99.90;;;;;;4163377;28;20208;-73
2022/01/29 06:51:57;;;;;;;2.90;2.28;;;18.20;99.90;;;;;;4162983;28;20220;-74
2022/01/29 06:53:59;;;;;;;3.00;2.65;;;18.20;99.90;;;;;;4162871;28;20272;-73
2022/01/29 06:56:02;;;;;;;2.72;2.53;;;18.20;99.90;;;;;;4162833;28;20282;-73
2022/01/29 06:58:04;;;;;;;4.22;2.67;;;18.20;99.90;;;;;;4161021;28;20216;-73
2022/01/29 07:00:08;;;;;;;3.00;2.70;;;18.20;99.90;;;;;;4163461;28;20270;-73
2022/01/29 07:02:11;;;;;;;2.70;2.50;;;18.20;99.90;;;;;;4163605;28;20216;-73
2022/01/29 07:04:14;;;;;;;3.33;2.58;;;18.20;99.90;;;;;;4160898;28;20724;-73
2022/01/29 07:06:16;;;;;;;2.70;2.50;;;18.20;99.90;;;;;;4164802;28;20221;-73
2022/01/29 07:08:18;;;;;;;2.60;2.40;;;18.10;99.90;;;;;;4164477;28;20216;-73
2022/01/29 07:10:21;;;;;;;2.95;2.65;;;18.20;99.90;;;;;;4164356;28;20623;-73
2022/01/29 07:12:24;;;;;;;2.58;2.38;;;18.20;99.90;;;;;;4163243;28;20258;-73
2022/01/29 07:14:26;;;;;;;3.22;2.45;;;18.10;99.90;;;;;;4163126;28;20227;-73
2022/01/29 07:16:29;;;;;;;2.65;2.45;;;18.10;99.90;;;;;;4157870;28;20704;-73
2022/01/29 07:18:33;;;;;;;2.92;2.53;;;18.10;99.90;;;;;;4160105;28;20221;-73
2022/01/29 07:20:35;;;;;;;3.80;2.92;;;18.10;99.90;;;;;;4157237;28;20275;-73
2022/01/29 07:22:39;;;;;;;2.80;2.60;;;18.20;99.90;;;;;;4161747;28;20232;-73
2022/01/29 07:24:42;;;;;;;2.83;2.50;;;18.20;99.90;;;;;;4163338;28;20266;-74
2022/01/29 07:26:45;;;;;;;2.40;2.20;;;18.20;99.90;;;;;;4163073;28;20251;-73
2022/01/29 07:28:47;;;;;;;3.00;2.47;;;18.20;99.90;;;;;;4163687;28;20209;-73
2022/01/29 07:30:50;;;;;;;2.72;2.53;;;18.20;99.90;;;;;;4162339;28;20274;-73
2022/01/29 07:32:52;;;;;;;3.63;2.58;;;18.20;99.90;;;;;;4162864;28;20212;-73
2022/01/29 07:34:56;;;;;;;2.63;2.40;;;18.10;99.90;;;;;;4161504;28;20220;-73
2022/01/29 07:36:58;;;;;;;2.28;2.08;;;18.10;99.90;;;;;;4161335;28;20286;-74
2022/01/29 07:39:01;;;;;;;2.50;2.20;;;18.10;99.90;;;;;;4160366;28;20276;-73
2022/01/29 07:41:03;;;;;;;3.10;2.80;;;18.10;99.90;;;;;;4162904;28;20310;-73
2022/01/29 07:43:05;;;;;;;2.80;2.50;;;18.10;99.90;;;;;;4162298;28;20278;-73
2022/01/29 07:45:08;;;;;;;2.65;2.33;;;18.20;99.90;;;;;;4162951;28;20277;-73
2022/01/29 07:47:10;;;;;;;2.60;2.30;;;18.10;99.90;;;;;;4161958;28;20283;-73
2022/01/29 07:49:13;;;;;;;2.92;2.25;;;18.10;99.90;;;;;;4162407;28;20204;-73
2022/01/29 07:51:16;;;;;;;2.53;2.28;;;18.10;99.90;;;;;;4161751;28;20212;-73
2022/01/29 07:53:19;;;;;;;2.80;2.30;;;18.10;99.90;;;;;;4157867;28;20290;-73
2022/01/29 07:55:21;;;;;;;3.53;2.30;;;18.20;99.90;;;;;;4157919;28;20263;-73
2022/01/29 07:57:24;;;;;;;2.22;2.03;;;18.10;99.90;;;;;;4161763;28;20658;-73
2022/01/29 07:59:26;;;;;;;2.25;2.10;;;18.10;99.90;;;;;;4161555;28;20212;-73
2022/01/29 08:01:28;;;;;;;2.70;2.15;;;18.10;99.90;;;;;;4161487;28;20213;-74
2022/01/29 08:03:31;;;;;;;3.47;2.42;;;18.10;99.90;;;;;;4161580;28;20644;-73
2022/01/29 08:05:34;;;;;;;2.35;2.15;;;17.90;99.90;;;;;;4162979;28;20222;-74
2022/01/29 08:07:39;;;;;;;2.75;2.10;;;17.70;99.90;;;;;;4161496;28;20213;-73
2022/01/29 08:09:41;;;;;;;3.33;2.40;;;17.70;99.90;;;;;;4161734;28;20221;-75
2022/01/29 08:11:43;;;;;;;3.10;2.13;;;17.90;99.90;;;;;;4158676;28;20268;-73
2022/01/29 08:13:47;;;;;;;2.70;1.98;;;18.00;99.90;;;;;;4160197;28;20208;-73
2022/01/29 08:15:49;;;;;;;2.50;2.10;;;18.10;99.90;;;;;;4161923;28;20224;-76
2022/01/29 08:17:51;;;;;;;1.83;1.73;;;18.20;99.90;;;;;;4161370;28;20216;-73
2022/01/29 08:19:54;;;;;;;1.70;1.60;;;18.30;99.90;;;;;;4162942;28;20301;-73
2022/01/29 08:21:56;;;;;;;2.35;1.92;;;18.30;99.90;;;;;;4163470;28;20215;-75
2022/01/29 08:24:00;;;;;;;2.33;2.13;;;18.30;99.90;;;;;;4161849;28;20728;-75
2022/01/29 08:26:02;;;;;;;2.15;1.95;;;18.30;99.90;;;;;;4163779;28;20220;-73
2022/01/29 08:28:05;;;;;;;2.42;1.80;;;18.40;99.90;;;;;;4163508;28;20220;-75
2022/01/29 08:30:08;;;;;;;2.00;1.80;;;18.40;99.90;;;;;;4157714;28;20274;-76
2022/01/29 08:32:11;;;;;;;2.45;1.80;;;18.30;99.90;;;;;;4159747;28;20251;-76
2022/01/29 08:34:14;;;;;;;3.17;1.77;;;18.40;99.90;;;;;;4161998;28;20259;-75
2022/01/29 08:36:16;;;;;;;2.63;1.60;;;18.40;99.90;;;;;;4161338;28;20240;-75
2022/01/29 08:38:18;;;;;;;1.80;1.48;;;18.40;99.90;;;;;;4161747;28;20216;-75
2022/01/29 08:40:22;;;;;;;2.40;1.60;;;18.40;99.90;;;;;;4163228;28;20224;-75
2022/01/29 08:42:24;;;;;;;2.38;1.80;;;18.40;99.90;;;;;;4161534;28;20263;-75
2022/01/29 08:44:27;;;;;;;1.98;1.73;;;18.40;99.90;;;;;;4161788;28;20240;-75
2022/01/29 08:46:29;;;;;;;1.60;1.50;;;18.50;99.90;;;;;;4157138;28;20638;-75
2022/01/29 08:48:31;;;;;;;2.65;1.80;;;18.40;99.90;;;;;;4157687;28;20259;-75
2022/01/29 08:50:34;;;;;;;2.42;1.70;;;18.50;99.90;;;;;;4160848;28;20274;-75
2022/01/29 08:52:37;;;;;;;1.90;1.60;;;18.50;99.90;;;;;;4163378;28;20217;-75
2022/01/29 08:54:39;;;;;;;1.70;1.60;;;18.50;99.90;;;;;;4161805;28;20609;-75
2022/01/29 08:56:43;;;;;;;2.10;1.50;;;18.50;99.90;;;;;;4161543;28;20220;-75
2022/01/29 08:58:45;;;;;;;2.75;1.60;;;18.50;99.90;;;;;;4162109;28;20278;-75
2022/01/29 09:00:48;;;;;;;1.67;1.58;;;18.50;99.90;;;;;;4161431;28;21708;-75
2022/01/29 09:02:50;;;;;;;1.92;1.70;;;18.50;99.90;;;;;;4160045;28;20677;-75
2022/01/29 09:04:55;;;;;;;3.10;1.50;;;18.60;99.90;;;;;;4161435;28;20649;-75
2022/01/29 09:06:57;;;;;;;1.85;1.40;;;18.50;99.90;;;;;;4157724;28;20217;-75
2022/01/29 09:08:59;;;;;;;1.60;1.50;;;18.60;99.90;;;;;;4160179;28;20335;-75
2022/01/29 09:11:02;;;;;;;1.50;1.40;;;18.60;99.90;;;;;;4153866;28;20287;-75
2022/01/29 09:13:06;;;;;;;1.55;1.40;;;18.60;99.90;;;;;;4159652;28;20224;-75
2022/01/29 09:15:09;;;;;;;1.98;1.38;;;18.60;99.90;;;;;;4161915;28;20275;-75
2022/01/29 09:17:11;;;;;;;2.00;1.60;;;18.70;99.90;;;;;;4161417;28;20282;-75
2022/01/29 09:19:14;;;;;;;2.95;1.50;;;18.70;99.90;;;;;;4161644;28;20220;-75
2022/01/29 09:21:16;;;;;;;1.50;1.40;;;18.70;99.90;;;;;;4162449;28;20634;-75
2022/01/29 09:23:18;;;;;;;1.70;1.45;;;18.70;99.90;;;;;;4165090;28;20260;-75
2022/01/29 09:25:21;;;;;;;1.88;1.40;;;18.70;99.90;;;;;;4165051;28;20990;-75
2022/01/29 09:27:23;;;;;;;1.42;1.30;;;18.70;99.90;;;;;;4160839;28;20343;-75
2022/01/29 09:29:27;;;;;;;1.52;1.23;;;18.70;99.90;;;;;;4163637;28;20266;-75
2022/01/29 09:31:29;;;;;;;1.33;1.20;;;18.70;99.90;;;;;;4163977;28;20267;-75
2022/01/29 09:33:32;;;;;;;1.98;1.50;;;18.70;99.90;;;;;;4164657;28;20266;-75
2022/01/29 09:35:34;;;;;;;1.58;1.33;;;18.70;99.90;;;;;;4165420;28;20282;-75
2022/01/29 09:37:37;;;;;;;1.30;1.20;;;18.70;99.90;;;;;;4162521;28;20851;-75
2022/01/29 09:39:42;;;;;;;1.92;1.42;;;18.70;99.90;;;;;;4164500;28;20209;-75
2022/01/29 09:41:45;;;;;;;1.38;1.23;;;18.80;99.90;;;;;;4166214;28;20221;-75
2022/01/29 09:43:48;;;;;;;1.58;1.30;;;18.80;99.90;;;;;;4163405;28;20235;-75
2022/01/29 09:45:52;;;;;;;1.40;1.30;;;18.80;99.90;;;;;;4162010;28;20348;-75
2022/01/29 09:48:01;;;;;;;2.78;1.50;;;18.80;99.90;;;;;;4163972;28;20705;-75
2022/01/29 09:50:04;;;;;;;1.30;1.20;;;18.80;99.90;;;;;;4164156;28;20208;-75
2022/01/29 09:52:07;;;;;;;1.17;1.08;;;18.80;99.90;;;;;;4163921;28;20271;-75
2022/01/29 09:54:09;;;;;;;1.30;1.08;;;18.90;99.90;;;;;;4164065;28;20212;-75
2022/01/29 09:56:12;;;;;;;1.17;1.08;;;18.90;99.90;;;;;;4163949;28;20225;-75
2022/01/29 09:58:15;;;;;;;2.38;1.42;;;18.90;99.90;;;;;;4165683;28;20934;-75
2022/01/29 10:00:19;;;;;;;2.13;1.20;;;18.90;99.90;;;;;;4164309;28;20216;-74
2022/01/29 10:02:23;;;;;;;1.48;1.25;;;18.90;99.90;;;;;;4161374;28;20263;-74
2022/01/29 10:04:27;;;;;;;1.40;1.17;;;18.90;99.90;;;;;;4162364;28;20652;-74
2022/01/29 10:06:29;;;;;;;1.73;1.25;;;18.90;99.90;;;;;;4163811;28;20270;-74
2022/01/29 10:08:43;;;;;;;1.67;1.20;;;19.00;99.90;;;;;;4163523;28;20212;-74
2022/01/29 10:10:47;;;;;;;1.65;1.10;;;19.00;99.90;;;;;;4161301;28;20221;-74
2022/01/29 10:12:49;;;;;;;1.45;1.20;;;19.00;99.90;;;;;;4163842;28;20244;-73
2022/01/29 10:14:54;;;;;;;1.55;1.10;;;19.00;99.90;;;;;;4164925;28;20228;-74
2022/01/29 10:16:57;;;;;;;1.70;1.38;;;19.00;99.90;;;;;;4162675;28;20209;-74
2022/01/29 10:19:02;;;;;;;1.50;1.05;;;19.00;99.90;;;;;;4163252;28;20228;-74
2022/01/29 10:21:13;;;;;;;1.55;1.00;;;19.00;99.90;;;;;;4163194;28;20270;-74
2022/01/29 10:23:16;;;;;;;1.10;1.00;;;19.00;99.90;;;;;;4161876;28;20277;-74
2022/01/29 10:25:21;;;;;;;1.50;1.40;;;19.00;99.90;;;;;;4160656;28;20240;-74
2022/01/29 10:27:23;;;;;;;1.70;1.10;;;19.10;99.90;;;;;;4162238;28;20217;-74
2022/01/29 10:29:28;;;;;;;1.45;1.02;;;19.10;99.90;;;;;;4161889;28;20220;-75
2022/01/29 10:31:41;;;;;;;1.33;1.02;;;19.10;99.90;;;;;;4165381;28;20221;-74
2022/01/29 10:33:43;;;;;;;1.20;1.10;;;19.10;99.90;;;;;;4164248;28;20271;-74
2022/01/29 10:35:49;;;;;;;1.45;1.00;;;19.20;99.90;;;;;;4163318;28;20340;-74
2022/01/29 10:37:58;;;;;;;1.13;0.82;;;19.20;99.90;;;;;;4146920;28;20205;-74
2022/01/29 10:40:02;;;;;;;1.60;1.20;;;19.20;99.90;;;;;;4146843;28;20220;-74
2022/01/29 10:42:15;;;;;;;1.13;1.02;;;19.20;99.90;;;;;;4143681;28;20217;-75
2022/01/29 10:44:19;;;;;;;1.08;0.95;;;19.20;99.90;;;;;;4145132;28;20233;-74
2022/01/29 10:46:29;;;;;;;1.13;0.98;;;19.20;99.90;;;;;;4144449;28;20666;-74
2022/01/29 10:48:44;;;;;;;1.15;0.90;;;19.30;99.90;;;;;;4146631;28;20658;-74
2022/01/29 10:51:12;;;;;;;1.85;1.02;;;19.20;99.90;;;;;;4146753;28;20554;-74